Millnerville, Iowa
Current Conditions -  °F | °C
As of 11:35 AM on Friday 31 Oct 2014 (Local Time) from KLRJ Reporting Station
Clear Clear  
Wind Chill: 24°   Ceiling: Unl
Heat Index: 32°   Visibility: 10mi
Dew Point: 19°   Wind: 10mph
Humidity: 60%   Direction: 40°NE
Pressure: 30.59"   Gusts: NA
Location:  42.7082°N, 96.485°W
Report Text: KLRJ 311635Z AUTO 04009KT 10SM CLR 00/M07 A3059 RMK AO2
Loading
Personal Weather Stations






























Interactive Weather Map
Tropical Storm Tracking
New forecast layout! Learn more

10-Day Weather Forecast

Advertisements
Track Severe Weather on mobile